sensor_id;sensor_type;location;lat;lon;timestamp;pressure;altitude;pressure_sealevel;temperature;humidity
43119;BME280;28729;49.838;8.650;2023-05-19T00:03:48;100440.50;;;9.95;78.40
43119;BME280;28729;49.838;8.650;2023-05-19T00:07:56;100440.75;;;9.94;78.40
43119;BME280;28729;49.838;8.650;2023-05-19T00:11:59;100434.47;;;9.87;79.04
43119;BME280;28729;49.838;8.650;2023-05-19T00:16:01;100436.63;;;9.85;78.19
43119;BME280;28729;49.838;8.650;2023-05-19T00:20:03;100436.22;;;9.81;78.36
43119;BME280;28729;49.838;8.650;2023-05-19T00:24:07;100429.03;;;9.80;78.15
43119;BME280;28729;49.838;8.650;2023-05-19T00:28:09;100432.00;;;9.78;79.89
43119;BME280;28729;49.838;8.650;2023-05-19T00:32:11;100437.59;;;9.72;81.90
43119;BME280;28729;49.838;8.650;2023-05-19T00:36:13;100425.00;;;9.64;81.75
43119;BME280;28729;49.838;8.650;2023-05-19T00:40:15;100436.91;;;9.58;83.15
43119;BME280;28729;49.838;8.650;2023-05-19T00:44:17;100425.97;;;9.51;83.71
43119;BME280;28729;49.838;8.650;2023-05-19T00:48:19;100428.41;;;9.41;84.77
43119;BME280;28729;49.838;8.650;2023-05-19T00:52:21;100430.78;;;9.38;83.78
43119;BME280;28729;49.838;8.650;2023-05-19T00:56:23;100426.56;;;9.35;85.05
43119;BME280;28729;49.838;8.650;2023-05-19T01:00:25;100426.41;;;9.30;85.09
43119;BME280;28729;49.838;8.650;2023-05-19T01:04:27;100418.38;;;9.28;84.22
43119;BME280;28729;49.838;8.650;2023-05-19T01:08:33;100420.72;;;9.25;85.56
43119;BME280;28729;49.838;8.650;2023-05-19T01:12:35;100414.00;;;9.21;84.99
43119;BME280;28729;49.838;8.650;2023-05-19T01:16:43;100401.78;;;9.17;86.73
43119;BME280;28729;49.838;8.650;2023-05-19T01:20:52;100402.69;;;9.10;87.93
43119;BME280;28729;49.838;8.650;2023-05-19T01:33:20;100404.91;;;8.95;90.74
43119;BME280;28729;49.838;8.650;2023-05-19T01:37:22;100407.53;;;8.90;89.24
43119;BME280;28729;49.838;8.650;2023-05-19T01:41:25;100407.97;;;8.87;90.30
43119;BME280;28729;49.838;8.650;2023-05-19T01:45:28;100410.34;;;8.83;90.81
43119;BME280;28729;49.838;8.650;2023-05-19T01:49:30;100409.91;;;8.80;90.64
43119;BME280;28729;49.838;8.650;2023-05-19T01:53:32;100415.03;;;8.76;91.14
43119;BME280;28729;49.838;8.650;2023-05-19T01:57:54;100412.97;;;8.72;91.50
43119;BME280;28729;49.838;8.650;2023-05-19T02:02:04;100416.16;;;8.69;92.62
43119;BME280;28729;49.838;8.650;2023-05-19T02:10:26;100418.72;;;8.63;91.88
43119;BME280;28729;49.838;8.650;2023-05-19T02:14:37;100422.50;;;8.62;95.12
43119;BME280;28729;49.838;8.650;2023-05-19T02:18:39;100425.09;;;8.57;95.88
43119;BME280;28729;49.838;8.650;2023-05-19T02:22:46;100418.78;;;8.50;96.07
43119;BME280;28729;49.838;8.650;2023-05-19T02:26:49;100416.06;;;8.50;96.48
43119;BME280;28729;49.838;8.650;2023-05-19T02:30:52;100414.81;;;8.46;96.37
43119;BME280;28729;49.838;8.650;2023-05-19T02:34:55;100420.75;;;8.43;98.08
43119;BME280;28729;49.838;8.650;2023-05-19T02:38:57;100407.66;;;8.38;98.68
43119;BME280;28729;49.838;8.650;2023-05-19T02:42:58;100414.03;;;8.32;98.82
43119;BME280;28729;49.838;8.650;2023-05-19T02:47:00;100409.22;;;8.28;97.17
43119;BME280;28729;49.838;8.650;2023-05-19T02:51:02;100409.41;;;8.26;97.70
43119;BME280;28729;49.838;8.650;2023-05-19T02:55:04;100395.53;;;8.21;99.31
43119;BME280;28729;49.838;8.650;2023-05-19T02:59:06;100402.50;;;8.17;99.15
43119;BME280;28729;49.838;8.650;2023-05-19T03:03:08;100402.72;;;8.15;98.74
43119;BME280;28729;49.838;8.650;2023-05-19T03:07:11;100397.88;;;8.11;99.26
43119;BME280;28729;49.838;8.650;2023-05-19T03:11:15;100398.97;;;8.10;100.00
43119;BME280;28729;49.838;8.650;2023-05-19T03:15:17;100395.56;;;8.08;99.09
43119;BME280;28729;49.838;8.650;2023-05-19T03:19:19;100398.56;;;8.06;100.00
43119;BME280;28729;49.838;8.650;2023-05-19T03:23:22;100402.78;;;8.02;99.40
43119;BME280;28729;49.838;8.650;2023-05-19T03:27:23;100404.88;;;8.00;100.00
43119;BME280;28729;49.838;8.650;2023-05-19T03:31:25;100394.34;;;7.97;100.00
43119;BME280;28729;49.838;8.650;2023-05-19T03:35:27;100401.53;;;7.98;100.00
43119;BME280;28729;49.838;8.650;2023-05-19T03:39:29;100410.63;;;7.98;99.54
43119;BME280;28729;49.838;8.650;2023-05-19T03:43:31;100410.38;;;8.00;100.00
43119;BME280;28729;49.838;8.650;2023-05-19T03:47:36;100414.84;;;8.01;100.00
43119;BME280;28729;49.838;8.650;2023-05-19T03:51:57;100420.75;;;7.98;100.00
43119;BME280;28729;49.838;8.650;2023-05-19T03:56:19;100410.38;;;8.00;100.00
43119;BME280;28729;49.838;8.650;2023-05-19T04:00:24;100417.13;;;8.04;100.00
43119;BME280;28729;49.838;8.650;2023-05-19T04:04:26;100422.81;;;8.09;100.00
43119;BME280;28729;49.838;8.650;2023-05-19T04:08:28;100420.47;;;8.13;100.00
43119;BME280;28729;49.838;8.650;2023-05-19T04:12:30;100416.47;;;8.15;100.00
43119;BME280;28729;49.838;8.650;2023-05-19T04:16:33;100414.31;;;8.17;100.00
43119;BME280;28729;49.838;8.650;2023-05-19T04:20:36;100416.63;;;8.20;100.00
43119;BME280;28729;49.838;8.650;2023-05-19T04:24:38;100420.63;;;8.25;99.79
43119;BME280;28729;49.838;8.650;2023-05-19T04:28:40;100420.97;;;8.35;99.21
43119;BME280;28729;49.838;8.650;2023-05-19T04:32:42;100427.91;;;8.44;98.59
43119;BME280;28729;49.838;8.650;2023-05-19T04:36:44;100419.25;;;8.47;98.20
43119;BME280;28729;49.838;8.650;2023-05-19T04:40:47;100428.50;;;8.53;96.79
43119;BME280;28729;49.838;8.650;2023-05-19T04:44:51;100425.69;;;8.59;96.59
43119;BME280;28729;49.838;8.650;2023-05-19T04:48:54;100427.81;;;8.64;95.65
43119;BME280;28729;49.838;8.650;2023-05-19T04:52:57;100428.63;;;8.64;96.06
43119;BME280;28729;49.838;8.650;2023-05-19T04:57:00;100436.00;;;8.71;95.17
43119;BME280;28729;49.838;8.650;2023-05-19T05:01:04;100438.91;;;8.76;95.03
43119;BME280;28729;49.838;8.650;2023-05-19T05:05:06;100443.97;;;8.79;94.92
43119;BME280;28729;49.838;8.650;2023-05-19T05:09:08;100439.94;;;8.81;95.19
43119;BME280;28729;49.838;8.650;2023-05-19T05:13:11;100439.69;;;8.83;95.68
43119;BME280;28729;49.838;8.650;2023-05-19T05:17:13;100449.34;;;8.92;95.92
43119;BME280;28729;49.838;8.650;2023-05-19T05:21:16;100444.88;;;8.98;96.44
43119;BME280;28729;49.838;8.650;2023-05-19T05:25:19;100442.47;;;9.08;94.49
43119;BME280;28729;49.838;8.650;2023-05-19T05:29:22;100431.78;;;9.18;94.40
43119;BME280;28729;49.838;8.650;2023-05-19T05:33:23;100430.44;;;9.27;93.58
43119;BME280;28729;49.838;8.650;2023-05-19T05:37:26;100427.19;;;9.37;92.70
43119;BME280;28729;49.838;8.650;2023-05-19T05:41:29;100426.41;;;9.48;92.14
43119;BME280;28729;49.838;8.650;2023-05-19T05:49:57;100427.75;;;9.64;91.69
43119;BME280;28729;49.838;8.650;2023-05-19T05:54:00;100432.94;;;9.72;90.64
43119;BME280;28729;49.838;8.650;2023-05-19T05:58:09;100430.13;;;9.79;90.15
43119;BME280;28729;49.838;8.650;2023-05-19T06:02:12;100426.44;;;9.85;89.91
43119;BME280;28729;49.838;8.650;2023-05-19T06:06:14;100433.69;;;9.98;89.47
43119;BME280;28729;49.838;8.650;2023-05-19T06:10:16;100432.22;;;10.14;89.66
43119;BME280;28729;49.838;8.650;2023-05-19T06:14:19;100429.69;;;10.31;88.78
43119;BME280;28729;49.838;8.650;2023-05-19T06:18:40;100428.97;;;10.54;88.52
43119;BME280;28729;49.838;8.650;2023-05-19T06:22:43;100425.88;;;10.73;87.25
43119;BME280;28729;49.838;8.650;2023-05-19T06:26:46;100432.41;;;11.03;85.73
43119;BME280;28729;49.838;8.650;2023-05-19T06:30:50;100423.94;;;11.28;84.50
43119;BME280;28729;49.838;8.650;2023-05-19T06:35:16;100431.47;;;11.56;83.91
43119;BME280;28729;49.838;8.650;2023-05-19T06:39:18;100435.66;;;11.70;83.42
43119;BME280;28729;49.838;8.650;2023-05-19T06:43:20;100445.75;;;11.76;81.81
43119;BME280;28729;49.838;8.650;2023-05-19T06:47:35;100443.00;;;11.88;81.88
43119;BME280;28729;49.838;8.650;2023-05-19T06:51:38;100438.28;;;12.00;81.19
43119;BME280;28729;49.838;8.650;2023-05-19T06:55:40;100448.91;;;12.20;81.49
43119;BME280;28729;49.838;8.650;2023-05-19T07:00:00;100448.72;;;12.39;79.75
43119;BME280;28729;49.838;8.650;2023-05-19T07:04:04;100452.34;;;12.68;77.34
43119;BME280;28729;49.838;8.650;2023-05-19T07:08:06;100439.31;;;12.97;74.93
43119;BME280;28729;49.838;8.650;2023-05-19T07:12:10;100439.38;;;13.19;73.74
43119;BME280;28729;49.838;8.650;2023-05-19T07:16:12;100427.84;;;13.39;71.31
43119;BME280;28729;49.838;8.650;2023-05-19T07:20:15;100423.06;;;13.73;69.97
43119;BME280;28729;49.838;8.650;2023-05-19T07:24:17;100423.44;;;14.04;67.65
43119;BME280;28729;49.838;8.650;2023-05-19T07:28:22;100421.44;;;14.21;66.86
43119;BME280;28729;49.838;8.650;2023-05-19T07:32:24;100408.13;;;14.45;65.70
43119;BME280;28729;49.838;8.650;2023-05-19T07:36:26;100404.31;;;14.73;65.45
43119;BME280;28729;49.838;8.650;2023-05-19T07:40:28;100406.22;;;15.00;61.75
43119;BME280;28729;49.838;8.650;2023-05-19T07:44:33;100399.72;;;15.21;61.93
43119;BME280;28729;49.838;8.650;2023-05-19T07:48:38;100403.41;;;15.32;59.76
43119;BME280;28729;49.838;8.650;2023-05-19T07:52:40;100398.25;;;15.51;59.50
43119;BME280;28729;49.838;8.650;2023-05-19T07:56:42;100391.38;;;15.64;60.25
43119;BME280;28729;49.838;8.650;2023-05-19T08:00:44;100390.38;;;15.80;60.47
43119;BME280;28729;49.838;8.650;2023-05-19T08:04:47;100382.94;;;15.96;59.56
43119;BME280;28729;49.838;8.650;2023-05-19T08:08:50;100381.84;;;15.92;56.34
43119;BME280;28729;49.838;8.650;2023-05-19T08:12:55;100378.19;;;15.86;57.11
43119;BME280;28729;49.838;8.650;2023-05-19T08:16:57;100384.41;;;16.14;57.88
43119;BME280;28729;49.838;8.650;2023-05-19T08:21:09;100383.91;;;16.32;54.05
43119;BME280;28729;49.838;8.650;2023-05-19T08:25:14;100382.84;;;16.49;55.80
43119;BME280;28729;49.838;8.650;2023-05-19T08:29:16;100391.50;;;16.73;54.76
43119;BME280;28729;49.838;8.650;2023-05-19T08:33:18;100377.06;;;16.91;55.26
43119;BME280;28729;49.838;8.650;2023-05-19T08:37:22;100372.88;;;17.09;52.72
43119;BME280;28729;49.838;8.650;2023-05-19T08:41:29;100373.44;;;17.26;50.21
43119;BME280;28729;49.838;8.650;2023-05-19T08:45:32;100354.75;;;17.32;49.79
43119;BME280;28729;49.838;8.650;2023-05-19T08:49:41;100368.13;;;17.30;49.59
43119;BME280;28729;49.838;8.650;2023-05-19T08:53:47;100358.38;;;17.38;49.70
43119;BME280;28729;49.838;8.650;2023-05-19T08:57:52;100360.31;;;17.32;48.23
43119;BME280;28729;49.838;8.650;2023-05-19T09:01:54;100349.41;;;17.51;47.89
43119;BME280;28729;49.838;8.650;2023-05-19T09:05:57;100347.09;;;17.89;48.40
43119;BME280;28729;49.838;8.650;2023-05-19T09:10:00;100343.88;;;18.60;47.07
43119;BME280;28729;49.838;8.650;2023-05-19T09:14:05;100340.16;;;18.70;46.32
43119;BME280;28729;49.838;8.650;2023-05-19T09:18:09;100333.91;;;18.49;45.83
43119;BME280;28729;49.838;8.650;2023-05-19T09:22:13;100320.88;;;18.79;47.34
43119;BME280;28729;49.838;8.650;2023-05-19T09:26:15;100339.53;;;19.12;45.90
43119;BME280;28729;49.838;8.650;2023-05-19T09:30:20;100324.84;;;19.02;44.03
43119;BME280;28729;49.838;8.650;2023-05-19T09:34:31;100309.50;;;18.99;44.36
43119;BME280;28729;49.838;8.650;2023-05-19T09:38:37;100317.50;;;19.11;43.48
43119;BME280;28729;49.838;8.650;2023-05-19T09:42:40;100310.72;;;19.17;44.98
43119;BME280;28729;49.838;8.650;2023-05-19T09:46:48;100306.66;;;19.33;42.81
43119;BME280;28729;49.838;8.650;2023-05-19T09:50:52;100312.47;;;19.66;44.17
43119;BME280;28729;49.838;8.650;2023-05-19T09:54:55;100313.22;;;19.96;41.79
43119;BME280;28729;49.838;8.650;2023-05-19T09:58:57;100308.94;;;19.98;42.89
43119;BME280;28729;49.838;8.650;2023-05-19T10:02:59;100314.91;;;20.35;41.68
43119;BME280;28729;49.838;8.650;2023-05-19T10:07:04;100301.25;;;20.47;40.77
43119;BME280;28729;49.838;8.650;2023-05-19T10:11:07;100300.94;;;20.48;40.88
43119;BME280;28729;49.838;8.650;2023-05-19T10:15:12;100301.03;;;20.62;40.69
43119;BME280;28729;49.838;8.650;2023-05-19T10:19:14;100292.63;;;20.24;41.33
43119;BME280;28729;49.838;8.650;2023-05-19T10:23:17;100292.69;;;19.57;40.82
43119;BME280;28729;49.838;8.650;2023-05-19T10:27:19;100277.66;;;19.00;42.22
43119;BME280;28729;49.838;8.650;2023-05-19T10:31:22;100279.47;;;19.15;42.34
43119;BME280;28729;49.838;8.650;2023-05-19T10:39:57;100276.41;;;19.65;43.72
43119;BME280;28729;49.838;8.650;2023-05-19T10:48:14;100276.59;;;20.30;40.86
43119;BME280;28729;49.838;8.650;2023-05-19T10:52:22;100275.63;;;20.59;40.02
43119;BME280;28729;49.838;8.650;2023-05-19T10:56:29;100260.50;;;21.20;39.78
43119;BME280;28729;49.838;8.650;2023-05-19T11:00:39;100266.06;;;21.53;39.72
43119;BME280;28729;49.838;8.650;2023-05-19T11:04:47;100265.53;;;21.78;39.08
43119;BME280;28729;49.838;8.650;2023-05-19T11:09:01;100248.16;;;21.76;37.64
43119;BME280;28729;49.838;8.650;2023-05-19T11:13:03;100255.78;;;21.48;39.67
43119;BME280;28729;49.838;8.650;2023-05-19T11:17:12;100250.13;;;21.34;38.83
43119;BME280;28729;49.838;8.650;2023-05-19T11:21:18;100253.06;;;21.43;38.39
43119;BME280;28729;49.838;8.650;2023-05-19T11:25:45;100251.25;;;21.89;37.97
43119;BME280;28729;49.838;8.650;2023-05-19T11:29:48;100245.28;;;22.18;38.07
43119;BME280;28729;49.838;8.650;2023-05-19T11:33:50;100250.53;;;22.33;37.18
43119;BME280;28729;49.838;8.650;2023-05-19T11:37:53;100241.75;;;22.12;38.22
43119;BME280;28729;49.838;8.650;2023-05-19T11:41:54;100232.50;;;22.25;37.51
43119;BME280;28729;49.838;8.650;2023-05-19T11:45:57;100225.59;;;21.95;36.69
43119;BME280;28729;49.838;8.650;2023-05-19T11:49:58;100227.59;;;22.31;37.89
43119;BME280;28729;49.838;8.650;2023-05-19T11:54:01;100224.97;;;23.19;35.73
43119;BME280;28729;49.838;8.650;2023-05-19T11:58:04;100216.03;;;23.66;34.53
43119;BME280;28729;49.838;8.650;2023-05-19T12:02:25;100213.97;;;24.06;34.36
43119;BME280;28729;49.838;8.650;2023-05-19T12:06:28;100220.25;;;24.64;34.47
43119;BME280;28729;49.838;8.650;2023-05-19T12:10:31;100229.25;;;25.13;33.56
43119;BME280;28729;49.838;8.650;2023-05-19T12:14:34;100218.88;;;25.64;32.31
43119;BME280;28729;49.838;8.650;2023-05-19T12:18:36;100221.03;;;25.97;31.16
43119;BME280;28729;49.838;8.650;2023-05-19T12:22:39;100219.72;;;26.16;31.42
43119;BME280;28729;49.838;8.650;2023-05-19T12:26:45;100214.03;;;26.57;31.27
43119;BME280;28729;49.838;8.650;2023-05-19T12:30:49;100209.59;;;26.69;30.11
43119;BME280;28729;49.838;8.650;2023-05-19T12:34:54;100214.03;;;26.36;30.11
43119;BME280;28729;49.838;8.650;2023-05-19T12:38:57;100206.53;;;26.20;30.93
43119;BME280;28729;49.838;8.650;2023-05-19T12:42:58;100203.94;;;26.35;31.15
43119;BME280;28729;49.838;8.650;2023-05-19T12:47:03;100203.25;;;26.18;31.22
43119;BME280;28729;49.838;8.650;2023-05-19T12:51:06;100191.09;;;26.17;31.68
43119;BME280;28729;49.838;8.650;2023-05-19T12:55:09;100196.53;;;25.12;31.98
43119;BME280;28729;49.838;8.650;2023-05-19T12:59:22;100188.72;;;25.86;32.49
43119;BME280;28729;49.838;8.650;2023-05-19T13:03:39;100193.28;;;26.32;31.95
43119;BME280;28729;49.838;8.650;2023-05-19T13:11:56;100180.28;;;26.86;30.32
43119;BME280;28729;49.838;8.650;2023-05-19T13:15:59;100183.81;;;27.28;30.00
43119;BME280;28729;49.838;8.650;2023-05-19T13:20:01;100177.84;;;26.84;30.59
43119;BME280;28729;49.838;8.650;2023-05-19T13:24:06;100172.94;;;26.60;31.01
43119;BME280;28729;49.838;8.650;2023-05-19T13:28:08;100175.03;;;26.51;31.37
43119;BME280;28729;49.838;8.650;2023-05-19T13:32:10;100171.38;;;27.08;31.18
43119;BME280;28729;49.838;8.650;2023-05-19T13:36:12;100162.25;;;26.66;31.01
43119;BME280;28729;49.838;8.650;2023-05-19T13:40:15;100164.88;;;25.96;32.03
43119;BME280;28729;49.838;8.650;2023-05-19T13:44:17;100176.63;;;25.56;32.34
43119;BME280;28729;49.838;8.650;2023-05-19T13:48:19;100177.28;;;25.23;32.65
43119;BME280;28729;49.838;8.650;2023-05-19T13:52:21;100163.31;;;24.88;32.85
43119;BME280;28729;49.838;8.650;2023-05-19T13:56:23;100174.41;;;24.93;32.96
43119;BME280;28729;49.838;8.650;2023-05-19T14:00:25;100173.53;;;24.37;34.18
43119;BME280;28729;49.838;8.650;2023-05-19T14:04:27;100160.78;;;24.48;33.40
43119;BME280;28729;49.838;8.650;2023-05-19T14:08:29;100156.81;;;24.96;32.74
43119;BME280;28729;49.838;8.650;2023-05-19T14:12:32;100157.75;;;24.62;33.80
43119;BME280;28729;49.838;8.650;2023-05-19T14:16:52;100164.41;;;24.58;33.69
43119;BME280;28729;49.838;8.650;2023-05-19T14:20:54;100162.59;;;24.44;34.22
43119;BME280;28729;49.838;8.650;2023-05-19T14:24:56;100159.97;;;24.04;34.72
43119;BME280;28729;49.838;8.650;2023-05-19T14:28:58;100149.31;;;23.49;35.19
43119;BME280;28729;49.838;8.650;2023-05-19T14:33:00;100134.31;;;24.88;33.20
43119;BME280;28729;49.838;8.650;2023-05-19T14:37:02;100137.81;;;26.16;31.79
43119;BME280;28729;49.838;8.650;2023-05-19T14:41:05;100151.13;;;25.94;32.37
43119;BME280;28729;49.838;8.650;2023-05-19T14:45:08;100133.81;;;25.24;33.01
43119;BME280;28729;49.838;8.650;2023-05-19T14:49:10;100131.00;;;24.86;32.84
43119;BME280;28729;49.838;8.650;2023-05-19T14:53:12;100133.59;;;24.35;33.77
43119;BME280;28729;49.838;8.650;2023-05-19T14:57:14;100137.75;;;24.29;33.86
43119;BME280;28729;49.838;8.650;2023-05-19T15:01:16;100128.66;;;24.23;33.80
43119;BME280;28729;49.838;8.650;2023-05-19T15:05:18;100129.34;;;24.11;34.75
43119;BME280;28729;49.838;8.650;2023-05-19T15:09:19;100139.09;;;23.62;35.32
43119;BME280;28729;49.838;8.650;2023-05-19T15:13:21;100137.66;;;23.16;34.93
43119;BME280;28729;49.838;8.650;2023-05-19T15:17:23;100128.94;;;22.86;35.13
43119;BME280;28729;49.838;8.650;2023-05-19T15:21:25;100125.81;;;22.88;35.34
43119;BME280;28729;49.838;8.650;2023-05-19T15:25:27;100120.66;;;22.90;35.53
43119;BME280;28729;49.838;8.650;2023-05-19T15:29:28;100123.88;;;22.66;35.21
43119;BME280;28729;49.838;8.650;2023-05-19T15:33:30;100114.53;;;22.48;35.04
43119;BME280;28729;49.838;8.650;2023-05-19T15:37:32;100121.25;;;22.16;36.32
43119;BME280;28729;49.838;8.650;2023-05-19T15:41:34;100122.31;;;22.20;36.65
43119;BME280;28729;49.838;8.650;2023-05-19T15:45:36;100125.13;;;22.20;36.62
43119;BME280;28729;49.838;8.650;2023-05-19T15:49:37;100119.75;;;22.32;36.28
43119;BME280;28729;49.838;8.650;2023-05-19T15:53:40;100123.25;;;22.38;36.35
43119;BME280;28729;49.838;8.650;2023-05-19T15:57:42;100129.56;;;22.43;36.58
43119;BME280;28729;49.838;8.650;2023-05-19T16:01:44;100120.41;;;22.15;36.87
43119;BME280;28729;49.838;8.650;2023-05-19T16:05:45;100108.75;;;21.99;36.47
43119;BME280;28729;49.838;8.650;2023-05-19T16:09:47;100104.84;;;22.09;35.99
43119;BME280;28729;49.838;8.650;2023-05-19T16:13:50;100113.25;;;22.23;36.14
43119;BME280;28729;49.838;8.650;2023-05-19T16:17:52;100108.94;;;22.03;36.08
43119;BME280;28729;49.838;8.650;2023-05-19T16:21:55;100094.41;;;22.01;36.58
43119;BME280;28729;49.838;8.650;2023-05-19T16:25:57;100097.22;;;21.78;37.62
43119;BME280;28729;49.838;8.650;2023-05-19T16:29:59;100096.53;;;21.59;37.44
43119;BME280;28729;49.838;8.650;2023-05-19T16:34:02;100102.22;;;21.31;37.88
43119;BME280;28729;49.838;8.650;2023-05-19T16:38:06;100086.38;;;21.13;38.14
43119;BME280;28729;49.838;8.650;2023-05-19T16:42:08;100081.28;;;20.87;37.73
43119;BME280;28729;49.838;8.650;2023-05-19T16:46:10;100083.88;;;20.70;38.46
43119;BME280;28729;49.838;8.650;2023-05-19T16:50:12;100088.19;;;20.48;38.71
43119;BME280;28729;49.838;8.650;2023-05-19T16:54:14;100086.94;;;20.27;39.71
43119;BME280;28729;49.838;8.650;2023-05-19T16:58:16;100082.97;;;20.14;41.07
43119;BME280;28729;49.838;8.650;2023-05-19T17:02:17;100088.13;;;20.07;41.15
43119;BME280;28729;49.838;8.650;2023-05-19T17:06:20;100076.72;;;20.03;41.51
43119;BME280;28729;49.838;8.650;2023-05-19T17:10:21;100072.56;;;20.01;41.08
43119;BME280;28729;49.838;8.650;2023-05-19T17:14:24;100077.53;;;19.90;42.31
43119;BME280;28729;49.838;8.650;2023-05-19T17:18:26;100081.69;;;19.74;42.30
43119;BME280;28729;49.838;8.650;2023-05-19T17:22:27;100072.38;;;19.59;42.05
43119;BME280;28729;49.838;8.650;2023-05-19T17:26:31;100079.19;;;19.53;42.66
43119;BME280;28729;49.838;8.650;2023-05-19T17:30:33;100085.38;;;19.50;43.38
43119;BME280;28729;49.838;8.650;2023-05-19T17:34:35;100087.19;;;19.41;42.76
43119;BME280;28729;49.838;8.650;2023-05-19T17:38:37;100085.66;;;19.30;43.25
43119;BME280;28729;49.838;8.650;2023-05-19T17:42:40;100083.47;;;19.27;43.87
43119;BME280;28729;49.838;8.650;2023-05-19T17:46:42;100086.88;;;19.24;43.57
43119;BME280;28729;49.838;8.650;2023-05-19T17:50:47;100097.13;;;19.09;44.39
43119;BME280;28729;49.838;8.650;2023-05-19T17:54:49;100087.25;;;18.98;44.54
43119;BME280;28729;49.838;8.650;2023-05-19T17:58:52;100095.13;;;18.91;45.08
43119;BME280;28729;49.838;8.650;2023-05-19T18:02:54;100091.72;;;18.75;44.60
43119;BME280;28729;49.838;8.650;2023-05-19T18:06:58;100096.03;;;18.62;44.50
43119;BME280;28729;49.838;8.650;2023-05-19T18:11:02;100099.22;;;18.51;44.59
43119;BME280;28729;49.838;8.650;2023-05-19T18:15:05;100094.50;;;18.46;44.50
43119;BME280;28729;49.838;8.650;2023-05-19T18:19:07;100096.53;;;18.40;44.49
43119;BME280;28729;49.838;8.650;2023-05-19T18:23:09;100094.91;;;18.34;45.61
43119;BME280;28729;49.838;8.650;2023-05-19T18:27:11;100103.16;;;18.20;45.47
43119;BME280;28729;49.838;8.650;2023-05-19T18:31:13;100103.47;;;18.14;45.05
43119;BME280;28729;49.838;8.650;2023-05-19T18:35:20;100095.69;;;18.11;46.08
43119;BME280;28729;49.838;8.650;2023-05-19T18:39:22;100103.00;;;18.07;45.65
43119;BME280;28729;49.838;8.650;2023-05-19T18:43:25;100096.97;;;17.94;45.49
43119;BME280;28729;49.838;8.650;2023-05-19T18:47:27;100098.41;;;17.87;45.70
43119;BME280;28729;49.838;8.650;2023-05-19T18:51:29;100102.38;;;17.75;46.87
43119;BME280;28729;49.838;8.650;2023-05-19T18:55:33;100093.84;;;17.62;46.78
43119;BME280;28729;49.838;8.650;2023-05-19T18:59:38;100098.09;;;17.49;47.18
43119;BME280;28729;49.838;8.650;2023-05-19T19:03:41;100099.00;;;17.39;46.51
43119;BME280;28729;49.838;8.650;2023-05-19T19:07:44;100100.50;;;17.21;47.59
43119;BME280;28729;49.838;8.650;2023-05-19T19:11:45;100093.06;;;17.06;47.65
43119;BME280;28729;49.838;8.650;2023-05-19T19:15:48;100090.66;;;16.90;48.06
43119;BME280;28729;49.838;8.650;2023-05-19T19:19:50;100104.84;;;16.83;47.33
43119;BME280;28729;49.838;8.650;2023-05-19T19:23:52;100104.31;;;16.71;47.67
43119;BME280;28729;49.838;8.650;2023-05-19T19:27:55;100120.78;;;16.57;48.14
43119;BME280;28729;49.838;8.650;2023-05-19T19:31:57;100120.81;;;16.41;48.85
43119;BME280;28729;49.838;8.650;2023-05-19T19:35:58;100124.16;;;16.23;49.52
43119;BME280;28729;49.838;8.650;2023-05-19T19:40:01;100122.50;;;16.17;48.99
43119;BME280;28729;49.838;8.650;2023-05-19T19:44:03;100125.84;;;16.09;49.02
43119;BME280;28729;49.838;8.650;2023-05-19T19:48:05;100120.03;;;15.95;50.28
43119;BME280;28729;49.838;8.650;2023-05-19T19:52:08;100138.63;;;15.84;51.32
43119;BME280;28729;49.838;8.650;2023-05-19T19:56:10;100132.47;;;15.67;52.65
43119;BME280;28729;49.838;8.650;2023-05-19T20:00:12;100129.94;;;15.55;53.48
43119;BME280;28729;49.838;8.650;2023-05-19T20:04:14;100134.09;;;15.42;53.43
43119;BME280;28729;49.838;8.650;2023-05-19T20:08:16;100131.84;;;15.29;53.01
43119;BME280;28729;49.838;8.650;2023-05-19T20:12:20;100137.94;;;15.21;53.76
43119;BME280;28729;49.838;8.650;2023-05-19T20:16:22;100132.31;;;15.11;55.38
43119;BME280;28729;49.838;8.650;2023-05-19T20:20:24;100128.41;;;14.96;55.73
43119;BME280;28729;49.838;8.650;2023-05-19T20:24:27;100138.03;;;14.84;55.40
43119;BME280;28729;49.838;8.650;2023-05-19T20:28:29;100129.94;;;14.72;55.21
43119;BME280;28729;49.838;8.650;2023-05-19T20:32:31;100132.97;;;14.65;55.45
43119;BME280;28729;49.838;8.650;2023-05-19T20:36:33;100134.00;;;14.54;56.13
43119;BME280;28729;49.838;8.650;2023-05-19T20:40:36;100133.91;;;14.44;57.56
43119;BME280;28729;49.838;8.650;2023-05-19T20:44:38;100136.94;;;14.37;56.71
43119;BME280;28729;49.838;8.650;2023-05-19T20:48:39;100131.34;;;14.32;57.67
43119;BME280;28729;49.838;8.650;2023-05-19T20:52:42;100129.34;;;14.22;58.39
43119;BME280;28729;49.838;8.650;2023-05-19T20:56:44;100129.25;;;14.12;60.21
43119;BME280;28729;49.838;8.650;2023-05-19T21:00:46;100127.25;;;14.02;60.66
43119;BME280;28729;49.838;8.650;2023-05-19T21:04:49;100128.31;;;13.96;60.54
43119;BME280;28729;49.838;8.650;2023-05-19T21:08:51;100132.97;;;13.90;61.74
43119;BME280;28729;49.838;8.650;2023-05-19T21:12:53;100125.72;;;13.84;61.69
43119;BME280;28729;49.838;8.650;2023-05-19T21:16:55;100130.13;;;13.80;62.46
43119;BME280;28729;49.838;8.650;2023-05-19T21:21:00;100134.78;;;13.75;64.04
43119;BME280;28729;49.838;8.650;2023-05-19T21:25:02;100134.13;;;13.62;64.83
43119;BME280;28729;49.838;8.650;2023-05-19T21:29:04;100130.13;;;13.53;65.09
43119;BME280;28729;49.838;8.650;2023-05-19T21:33:06;100138.91;;;13.45;65.96
43119;BME280;28729;49.838;8.650;2023-05-19T21:37:08;100134.97;;;13.41;66.75
43119;BME280;28729;49.838;8.650;2023-05-19T21:41:10;100134.34;;;13.34;68.09
43119;BME280;28729;49.838;8.650;2023-05-19T21:45:12;100137.34;;;13.27;69.49
43119;BME280;28729;49.838;8.650;2023-05-19T21:49:14;100143.03;;;13.20;69.35